NCAR-RAP Real-Time Weather Data

Output produced by METARs form (17 September 2019  16:11 UTC)
found at http://weather.rap.ucar.edu/surface/
 
KABE 171551Z 04008KT 10SM CLR 22/09 A3017 RMK AO2 SLP216 T02220094
KABE 171451Z VRB03KT 10SM CLR 21/09 A3018 RMK AO2 SLP218 T02110094 50008
KABE 171351Z 07007KT 10SM CLR 19/10 A3018 RMK AO2 SLP218 T01940100
KABE 171251Z 06008KT 10SM FEW036 18/11 A3017 RMK AO2 SLP215 T01780106
KABE 171151Z 05006KT 10SM CLR 16/11 A3015 RMK AO2 SLP210 T01610106 10183 20139 53019
KABE 171051Z 05003KT 10SM CLR 14/10 A3014 RMK AO2 SLP204 T01390100
KABE 170951Z 07003KT 10SM FEW032 15/11 A3011 RMK AO2 SLP196 T01500106
KABE 170851Z 00000KT 10SM SCT026 15/11 A3010 RMK AO2 SLP191 T01500111 53004
KABE 170751Z 07003KT 10SM CLR 16/11 A3008 RMK AO2 SLP185 T01610111
KABE 170651Z 04005KT 10SM CLR 17/12 A3008 RMK AO2 SLP185 T01670117
KABE 170551Z 04004KT 10SM SCT039 18/14 A3009 RMK AO2 SLP185 T01830139 10228 20183 53008
KABE 170451Z 04004KT 10SM SCT039 BKN060 19/16 A3008 RMK AO2 SLP183 T01890156 402780178
KABE 170351Z 03003KT 10SM FEW055 19/17 A3007 RMK AO2 SLP178 T01940167
KABE 170251Z AUTO 33005KT 10SM FEW030 SCT055 19/17 A3006 RMK AO2 SLP177 T01890167 51013
KABE 170051Z 02003KT 10SM FEW046 21/17 A3004 RMK AO2 SLP171 T02110167
KABE 162351Z 08005KT 10SM FEW060 SCT110 23/17 A3002 RMK AO2 SLP165 T02280172 10278 20228 53008
KABE 162251Z 06006KT 10SM BKN065 BKN090 24/18 A3001 RMK AO2 SLP161 T02390178
KABE 162151Z 05006KT 10SM BKN065 OVC080 26/16 A3001 RMK AO2 SLP158 T02560161
KABE 162051Z 09003KT 10SM OVC070 27/16 A3000 RMK AO2 SLP156 T02720161 56012
KABE 161951Z 00000KT 10SM BKN110 27/16 A3001 RMK AO2 SLP159 T02670161
KABE 161851Z 06004KT 10SM FEW075 SCT110 27/17 A3002 RMK AO2 SLP163 T02670167